Morro Bay, CA

2:48 PM PDT on March 26, 2017 (GMT -0700)
Below Hill Street | | Change Station
Active Advisory: Wind Advisory

Elev 45 ft 35.38 °N, 120.85 °W | Updated 29 seconds ago

Mostly Cloudy
Mostly Cloudy
61.0 °F
Feels Like 61.0 °F
N
4.9
Wind Variable Wind from West
Gusts 7.4 mph

Today
High -- | Low -- °F
--% Chance of Precip.
Yesterday
High -- | Low -- °F
Precip. -- in
Pressure 30.11 in
Visibility 10.0 miles
Clouds Mostly Cloudy 8500 ft
Dew Point 54 °F
Humidity 79%
Rainfall 0.00 in
Snow Depth Not available.
6:57 AM 7:20 PM
Waning Crescent, 2% visible
METAR KSBP 262056Z 30015KT 10SM BKN085 18/11 A3010 RMK AO2 SLP194 T01830106 50000
Pressure 30.11 in
Visibility 10.0 miles
Clouds Mostly Cloudy 8500 ft
Dew Point 54 °F
Humidity 79%
Rainfall 0.00 in
Snow Depth Not available.
6:57 AM 7:20 PM
Waning Crescent, 2% visible
METAR KSBP 262056Z 30015KT 10SM BKN085 18/11 A3010 RMK AO2 SLP194 T01830106 50000

Get Your Daily Forecast Email!

Thanks for signing up!

Be on the lookout for a verification email in your inbox.

You'll start receiving severe weather alerts in your inbox..

×

10-Day Weather Forecast

Almanac

Astronomy

Mar. 26, 2017 Rise Set
Actual Time
Civil Twilight
Nautical Twilight
Astronomical Twilight
Moon
Length of Visible Light
Length of Day
Tomorrow will be .
, % of the Moon is Illuminated

Today's Extremes

State Highs State Lows

Community

WunderPhotos

Upload Photos

1,962,540 photos uploaded!

WunderBlog® & News

Nearby

Air Quality

  Air Quality AQ Index Pollutant
Not available.

Snow Depth

Station Depth Elevation

Earthquake Activity

City Distance Mag. Time & Date
Minimum magnitude displayed is 2.5.

Earthquake Activity

City Distance Mag. Time & Date
Minimum magnitude displayed is 2.5.

Coastal Water Temperatures

Place Temperature

Stations

Nearby Weather Stations

Station Location Temp. Windchill Dew Point Humidity Wind Precip. Elev Updated Type
                   

Watches & Warnings

Wind Advisory
Issued: 12:50 PM PDT Mar. 26, 2017 – National Weather Service

... Wind Advisory in effect from noon to 9 PM PDT Monday...

The National Weather Service in Los Angeles/Oxnard has issued a
Wind Advisory, which is in effect from noon to 9 PM PDT Monday.

* Winds... areas of northwest winds 20 to 30 mph with gusts to 40
mph... strongest near the coast and across higher terrain.

* Impacts... cross winds can make driving difficult, especially for
drivers of high profile vehicles and vehicles towing trailers.

Precautionary/preparedness actions...

When driving, use extra caution. Be prepared for sudden gusty
cross winds.